ESMS/MMX METAR and TAF weather

Enter ICAO airport designator
Station Type Date Time Source
ESMS METAR 2022/01/29 09:20 UTC NOAA

ESMS 290920Z 24016KT 2000 RA OVC003 06/06 Q1004


Station Type Date Time Source
ESMS Decoded METAR 2022/01/29 09:20 UTC NOAA

Malmo / Sturup, Sweden (ESMS) 55-33N 013-22E
Jan 29, 2022 - 04:20 AM EST / 2022.01.29 0920 UTC
Wind: from the WSW (240 degrees) at 18 MPH (16 KT):0
Visibility: 1 mile(s):0
Sky conditions: overcast
Weather: rain
Temperature: 42 F (6 C)
Dew Point: 42 F (6 C)
Relative Humidity: 100%
Pressure (altimeter): 29.65 in. Hg (1004 hPa)
ob: ESMS 290920Z 24016KT 2000 RA OVC003 06/06 Q1004
cycle: 9

Station Type Date Time Source
ESMS TAF 2022/01/29 09:12 UTC NOAA

TAF ESMS 290809Z 2909/3009 25018KT 2500 RADZ BR BKN003
TEMPO 2909/2914 6000 -RA BKN008
BECMG 2910/2912 25020G35KT
BECMG 2914/2916 26025G45KT 9999 NSW SCT025
TEMPO 2916/3006 SHRA SCT020CB
BECMG 2917/2919 29030G52KT

Example: see airport list